sensor_id;sensor_type;location;lat;lon;timestamp;temperature;humidity
52621;DHT22;38515;53.160;6.990;2022-12-07T00:00:53;1.60;99.90
52621;DHT22;38515;53.160;6.990;2022-12-07T00:03:19;2.20;99.90
52621;DHT22;38515;53.160;6.990;2022-12-07T00:05:45;1.60;99.90
52621;DHT22;38515;53.160;6.990;2022-12-07T00:08:11;2.50;99.90
52621;DHT22;38515;53.160;6.990;2022-12-07T00:10:37;2.50;99.90
52621;DHT22;38515;53.160;6.990;2022-12-07T00:13:03;2.80;99.90
52621;DHT22;38515;53.160;6.990;2022-12-07T00:15:29;2.40;99.90
52621;DHT22;38515;53.160;6.990;2022-12-07T00:17:54;2.70;99.90
52621;DHT22;38515;53.160;6.990;2022-12-07T00:20:20;3.00;99.90
52621;DHT22;38515;53.160;6.990;2022-12-07T00:22:46;3.20;99.90
52621;DHT22;38515;53.160;6.990;2022-12-07T00:25:12;2.90;99.90
52621;DHT22;38515;53.160;6.990;2022-12-07T00:27:38;1.90;99.90
52621;DHT22;38515;53.160;6.990;2022-12-07T00:30:04;3.00;99.90
52621;DHT22;38515;53.160;6.990;2022-12-07T00:32:30;2.60;99.90
52621;DHT22;38515;53.160;6.990;2022-12-07T00:34:56;4.80;99.90
52621;DHT22;38515;53.160;6.990;2022-12-07T00:37:22;3.00;99.90
52621;DHT22;38515;53.160;6.990;2022-12-07T00:39:48;2.90;99.90
52621;DHT22;38515;53.160;6.990;2022-12-07T00:42:14;1.90;99.90
52621;DHT22;38515;53.160;6.990;2022-12-07T00:44:40;2.20;99.90
52621;DHT22;38515;53.160;6.990;2022-12-07T00:47:06;3.20;99.90
52621;DHT22;38515;53.160;6.990;2022-12-07T00:49:31;2.70;99.90
52621;DHT22;38515;53.160;6.990;2022-12-07T00:51:57;2.70;99.90
52621;DHT22;38515;53.160;6.990;2022-12-07T00:54:23;3.00;99.90
52621;DHT22;38515;53.160;6.990;2022-12-07T00:56:49;3.40;99.90
52621;DHT22;38515;53.160;6.990;2022-12-07T00:59:15;3.60;99.90
52621;DHT22;38515;53.160;6.990;2022-12-07T01:01:41;3.40;99.90
52621;DHT22;38515;53.160;6.990;2022-12-07T01:04:07;3.60;99.90
52621;DHT22;38515;53.160;6.990;2022-12-07T01:06:33;2.70;99.90
52621;DHT22;38515;53.160;6.990;2022-12-07T01:09:00;3.80;99.90
52621;DHT22;38515;53.160;6.990;2022-12-07T01:11:29;3.60;99.90
52621;DHT22;38515;53.160;6.990;2022-12-07T01:13:56;3.90;99.90
52621;DHT22;38515;53.160;6.990;2022-12-07T01:16:24;3.50;99.90
52621;DHT22;38515;53.160;6.990;2022-12-07T01:18:52;3.50;99.90
52621;DHT22;38515;53.160;6.990;2022-12-07T01:21:21;3.30;99.90
52621;DHT22;38515;53.160;6.990;2022-12-07T01:23:48;2.60;99.90
52621;DHT22;38515;53.160;6.990;2022-12-07T01:26:19;3.30;99.90
52621;DHT22;38515;53.160;6.990;2022-12-07T01:28:45;3.20;99.90
52621;DHT22;38515;53.160;6.990;2022-12-07T01:31:14;3.20;99.90
52621;DHT22;38515;53.160;6.990;2022-12-07T01:33:44;2.90;99.90
52621;DHT22;38515;53.160;6.990;2022-12-07T01:36:15;4.80;99.90
52621;DHT22;38515;53.160;6.990;2022-12-07T01:38:41;4.60;99.90
52621;DHT22;38515;53.160;6.990;2022-12-07T01:41:07;3.50;99.90
52621;DHT22;38515;53.160;6.990;2022-12-07T01:43:34;4.10;99.90
52621;DHT22;38515;53.160;6.990;2022-12-07T01:46:00;3.70;99.90
52621;DHT22;38515;53.160;6.990;2022-12-07T01:48:36;3.90;99.90
52621;DHT22;38515;53.160;6.990;2022-12-07T01:51:13;3.10;99.90
52621;DHT22;38515;53.160;6.990;2022-12-07T01:53:43;3.50;99.90
52621;DHT22;38515;53.160;6.990;2022-12-07T01:56:14;2.10;99.90
52621;DHT22;38515;53.160;6.990;2022-12-07T01:58:43;3.50;99.90
52621;DHT22;38515;53.160;6.990;2022-12-07T02:01:09;3.90;99.90
52621;DHT22;38515;53.160;6.990;2022-12-07T02:03:40;3.50;99.90
52621;DHT22;38515;53.160;6.990;2022-12-07T02:06:07;4.40;99.90
52621;DHT22;38515;53.160;6.990;2022-12-07T02:08:34;3.30;99.90
52621;DHT22;38515;53.160;6.990;2022-12-07T02:11:01;3.40;99.90
52621;DHT22;38515;53.160;6.990;2022-12-07T02:13:30;4.50;99.90
52621;DHT22;38515;53.160;6.990;2022-12-07T02:27:10;3.00;99.90
52621;DHT22;38515;53.160;6.990;2022-12-07T02:29:57;3.90;99.90
52621;DHT22;38515;53.160;6.990;2022-12-07T02:32:44;3.60;99.90
52621;DHT22;38515;53.160;6.990;2022-12-07T02:35:28;3.50;99.90
52621;DHT22;38515;53.160;6.990;2022-12-07T02:38:02;2.30;99.90
52621;DHT22;38515;53.160;6.990;2022-12-07T02:40:48;2.50;99.90
52621;DHT22;38515;53.160;6.990;2022-12-07T02:43:25;3.80;99.90
52621;DHT22;38515;53.160;6.990;2022-12-07T02:45:56;3.10;99.90
52621;DHT22;38515;53.160;6.990;2022-12-07T02:48:24;2.90;99.90
52621;DHT22;38515;53.160;6.990;2022-12-07T02:51:32;2.50;99.90
52621;DHT22;38515;53.160;6.990;2022-12-07T02:53:59;3.40;99.90
52621;DHT22;38515;53.160;6.990;2022-12-07T02:56:39;3.30;99.90
52621;DHT22;38515;53.160;6.990;2022-12-07T03:02:22;2.30;99.90
52621;DHT22;38515;53.160;6.990;2022-12-07T03:07:33;3.30;99.90
52621;DHT22;38515;53.160;6.990;2022-12-07T03:15:29;3.60;99.90
52621;DHT22;38515;53.160;6.990;2022-12-07T03:17:59;3.00;99.90
52621;DHT22;38515;53.160;6.990;2022-12-07T03:20:28;4.40;99.90
52621;DHT22;38515;53.160;6.990;2022-12-07T03:22:55;4.30;99.90
52621;DHT22;38515;53.160;6.990;2022-12-07T03:25:22;2.90;99.90
52621;DHT22;38515;53.160;6.990;2022-12-07T03:27:58;3.00;99.90
52621;DHT22;38515;53.160;6.990;2022-12-07T03:30:49;4.30;99.90
52621;DHT22;38515;53.160;6.990;2022-12-07T03:33:22;3.30;99.90
52621;DHT22;38515;53.160;6.990;2022-12-07T03:35:58;3.00;99.90
52621;DHT22;38515;53.160;6.990;2022-12-07T03:38:32;1.80;99.90
52621;DHT22;38515;53.160;6.990;2022-12-07T03:41:06;2.70;99.90
52621;DHT22;38515;53.160;6.990;2022-12-07T03:43:34;3.00;99.90
52621;DHT22;38515;53.160;6.990;2022-12-07T03:48:57;2.90;99.90
52621;DHT22;38515;53.160;6.990;2022-12-07T03:54:01;1.50;99.90
52621;DHT22;38515;53.160;6.990;2022-12-07T03:56:29;2.30;99.90
52621;DHT22;38515;53.160;6.990;2022-12-07T03:58:55;2.60;99.90
52621;DHT22;38515;53.160;6.990;2022-12-07T04:01:23;2.40;99.90
52621;DHT22;38515;53.160;6.990;2022-12-07T04:03:49;2.60;99.90
52621;DHT22;38515;53.160;6.990;2022-12-07T04:06:15;2.60;99.90
52621;DHT22;38515;53.160;6.990;2022-12-07T04:08:41;3.80;99.90
52621;DHT22;38515;53.160;6.990;2022-12-07T04:11:07;2.20;99.90
52621;DHT22;38515;53.160;6.990;2022-12-07T04:13:33;4.50;99.90
52621;DHT22;38515;53.160;6.990;2022-12-07T04:16:19;2.40;99.90
52621;DHT22;38515;53.160;6.990;2022-12-07T04:18:45;2.10;99.90
52621;DHT22;38515;53.160;6.990;2022-12-07T04:21:11;2.80;99.90
52621;DHT22;38515;53.160;6.990;2022-12-07T04:23:37;2.80;99.90
52621;DHT22;38515;53.160;6.990;2022-12-07T04:26:03;2.60;99.90
52621;DHT22;38515;53.160;6.990;2022-12-07T04:28:29;4.20;99.90
52621;DHT22;38515;53.160;6.990;2022-12-07T04:30:55;2.50;99.90
52621;DHT22;38515;53.160;6.990;2022-12-07T04:33:21;3.00;99.90
52621;DHT22;38515;53.160;6.990;2022-12-07T04:35:47;2.70;99.90
52621;DHT22;38515;53.160;6.990;2022-12-07T04:38:12;2.70;99.90
52621;DHT22;38515;53.160;6.990;2022-12-07T04:40:38;2.90;99.90
52621;DHT22;38515;53.160;6.990;2022-12-07T04:43:04;4.30;99.90
52621;DHT22;38515;53.160;6.990;2022-12-07T04:45:30;2.30;99.90
52621;DHT22;38515;53.160;6.990;2022-12-07T04:47:56;3.10;99.90
52621;DHT22;38515;53.160;6.990;2022-12-07T04:50:22;3.20;99.90
52621;DHT22;38515;53.160;6.990;2022-12-07T04:52:48;2.60;99.90
52621;DHT22;38515;53.160;6.990;2022-12-07T04:55:14;3.20;99.90
52621;DHT22;38515;53.160;6.990;2022-12-07T04:57:40;2.90;99.90
52621;DHT22;38515;53.160;6.990;2022-12-07T05:00:07;3.10;99.90
52621;DHT22;38515;53.160;6.990;2022-12-07T05:02:33;3.70;99.90
52621;DHT22;38515;53.160;6.990;2022-12-07T05:04:58;1.20;99.90
52621;DHT22;38515;53.160;6.990;2022-12-07T05:07:24;3.60;99.90
52621;DHT22;38515;53.160;6.990;2022-12-07T05:09:50;3.50;99.90
52621;DHT22;38515;53.160;6.990;2022-12-07T05:12:16;3.70;99.90
52621;DHT22;38515;53.160;6.990;2022-12-07T05:14:44;3.40;99.90
52621;DHT22;38515;53.160;6.990;2022-12-07T05:17:10;2.80;99.90
52621;DHT22;38515;53.160;6.990;2022-12-07T05:19:37;3.00;99.90
52621;DHT22;38515;53.160;6.990;2022-12-07T05:22:03;3.50;99.90
52621;DHT22;38515;53.160;6.990;2022-12-07T05:24:29;4.10;99.90
52621;DHT22;38515;53.160;6.990;2022-12-07T05:26:55;3.10;99.90
52621;DHT22;38515;53.160;6.990;2022-12-07T05:29:20;3.20;99.90
52621;DHT22;38515;53.160;6.990;2022-12-07T05:31:46;2.50;99.90
52621;DHT22;38515;53.160;6.990;2022-12-07T05:34:12;2.80;99.90
52621;DHT22;38515;53.160;6.990;2022-12-07T05:36:39;1.50;99.90
52621;DHT22;38515;53.160;6.990;2022-12-07T05:39:05;1.90;99.90
52621;DHT22;38515;53.160;6.990;2022-12-07T05:41:31;3.10;99.90
52621;DHT22;38515;53.160;6.990;2022-12-07T05:44:16;2.80;99.90
52621;DHT22;38515;53.160;6.990;2022-12-07T05:46:42;2.20;99.90
52621;DHT22;38515;53.160;6.990;2022-12-07T05:49:07;2.20;99.90
52621;DHT22;38515;53.160;6.990;2022-12-07T05:51:33;1.90;99.90
52621;DHT22;38515;53.160;6.990;2022-12-07T05:53:59;3.00;99.90
52621;DHT22;38515;53.160;6.990;2022-12-07T05:56:25;2.70;99.90
52621;DHT22;38515;53.160;6.990;2022-12-07T05:58:52;-0.20;99.90
52621;DHT22;38515;53.160;6.990;2022-12-07T06:01:36;1.50;99.90
52621;DHT22;38515;53.160;6.990;2022-12-07T06:06:28;0.70;99.90
52621;DHT22;38515;53.160;6.990;2022-12-07T06:08:54;1.90;99.90
52621;DHT22;38515;53.160;6.990;2022-12-07T06:11:20;1.40;99.90
52621;DHT22;38515;53.160;6.990;2022-12-07T06:14:04;-0.60;99.90
52621;DHT22;38515;53.160;6.990;2022-12-07T06:16:30;3.00;99.90
52621;DHT22;38515;53.160;6.990;2022-12-07T06:18:56;1.50;99.90
52621;DHT22;38515;53.160;6.990;2022-12-07T06:21:22;2.30;99.90
52621;DHT22;38515;53.160;6.990;2022-12-07T06:23:48;1.80;99.90
52621;DHT22;38515;53.160;6.990;2022-12-07T06:26:14;1.60;99.90
52621;DHT22;38515;53.160;6.990;2022-12-07T06:28:40;0.80;99.90
52621;DHT22;38515;53.160;6.990;2022-12-07T06:31:06;0.40;99.90
52621;DHT22;38515;53.160;6.990;2022-12-07T06:33:32;1.70;99.90
52621;DHT22;38515;53.160;6.990;2022-12-07T06:35:58;1.90;99.90
52621;DHT22;38515;53.160;6.990;2022-12-07T06:40:51;2.30;99.90
52621;DHT22;38515;53.160;6.990;2022-12-07T06:43:17;1.90;99.90
52621;DHT22;38515;53.160;6.990;2022-12-07T06:45:43;2.00;99.90
52621;DHT22;38515;53.160;6.990;2022-12-07T06:48:09;0.70;99.90
52621;DHT22;38515;53.160;6.990;2022-12-07T06:50:35;2.50;99.90
52621;DHT22;38515;53.160;6.990;2022-12-07T06:53:01;1.60;99.90
52621;DHT22;38515;53.160;6.990;2022-12-07T06:55:26;2.80;99.90
52621;DHT22;38515;53.160;6.990;2022-12-07T06:57:52;2.20;99.90
52621;DHT22;38515;53.160;6.990;2022-12-07T07:00:19;2.50;99.90
52621;DHT22;38515;53.160;6.990;2022-12-07T07:02:45;2.30;99.90
52621;DHT22;38515;53.160;6.990;2022-12-07T07:05:10;1.80;99.90
52621;DHT22;38515;53.160;6.990;2022-12-07T07:07:36;3.70;99.90
52621;DHT22;38515;53.160;6.990;2022-12-07T07:10:02;0.90;99.90
52621;DHT22;38515;53.160;6.990;2022-12-07T07:12:28;2.60;99.90
52621;DHT22;38515;53.160;6.990;2022-12-07T07:14:54;2.30;99.90
52621;DHT22;38515;53.160;6.990;2022-12-07T07:17:20;1.70;99.90
52621;DHT22;38515;53.160;6.990;2022-12-07T07:19:46;2.80;99.90
52621;DHT22;38515;53.160;6.990;2022-12-07T07:22:12;1.60;99.90
52621;DHT22;38515;53.160;6.990;2022-12-07T07:24:38;0.70;99.90
52621;DHT22;38515;53.160;6.990;2022-12-07T07:29:30;2.30;99.90
52621;DHT22;38515;53.160;6.990;2022-12-07T07:31:56;1.30;99.90
52621;DHT22;38515;53.160;6.990;2022-12-07T07:34:22;1.90;99.90
52621;DHT22;38515;53.160;6.990;2022-12-07T07:36:47;1.10;99.90
52621;DHT22;38515;53.160;6.990;2022-12-07T07:39:13;0.30;99.90
52621;DHT22;38515;53.160;6.990;2022-12-07T07:41:39;1.30;99.90
52621;DHT22;38515;53.160;6.990;2022-12-07T07:44:05;1.20;99.90
52621;DHT22;38515;53.160;6.990;2022-12-07T07:46:31;0.70;99.90
52621;DHT22;38515;53.160;6.990;2022-12-07T07:48:58;-0.40;99.90
52621;DHT22;38515;53.160;6.990;2022-12-07T07:51:24;0.90;99.90
52621;DHT22;38515;53.160;6.990;2022-12-07T07:53:50;1.80;99.90
52621;DHT22;38515;53.160;6.990;2022-12-07T07:56:16;1.60;99.90
52621;DHT22;38515;53.160;6.990;2022-12-07T07:58:42;1.60;99.90
52621;DHT22;38515;53.160;6.990;2022-12-07T08:01:08;2.40;99.90
52621;DHT22;38515;53.160;6.990;2022-12-07T08:03:34;2.30;99.90
52621;DHT22;38515;53.160;6.990;2022-12-07T08:06:03;2.30;99.90
52621;DHT22;38515;53.160;6.990;2022-12-07T08:08:29;3.20;99.90
52621;DHT22;38515;53.160;6.990;2022-12-07T08:10:55;2.30;99.90
52621;DHT22;38515;53.160;6.990;2022-12-07T08:13:21;3.00;99.90
52621;DHT22;38515;53.160;6.990;2022-12-07T08:15:47;3.60;99.90
52621;DHT22;38515;53.160;6.990;2022-12-07T08:18:14;3.90;99.90
52621;DHT22;38515;53.160;6.990;2022-12-07T08:20:41;1.30;99.90
52621;DHT22;38515;53.160;6.990;2022-12-07T08:23:08;2.80;99.90
52621;DHT22;38515;53.160;6.990;2022-12-07T08:25:35;3.90;99.90
52621;DHT22;38515;53.160;6.990;2022-12-07T08:28:01;5.10;99.90
52621;DHT22;38515;53.160;6.990;2022-12-07T08:30:28;4.20;99.90
52621;DHT22;38515;53.160;6.990;2022-12-07T08:32:55;3.30;99.90
52621;DHT22;38515;53.160;6.990;2022-12-07T08:35:21;3.40;99.90
52621;DHT22;38515;53.160;6.990;2022-12-07T08:37:47;3.30;99.90
52621;DHT22;38515;53.160;6.990;2022-12-07T08:40:14;3.90;99.90
52621;DHT22;38515;53.160;6.990;2022-12-07T08:42:42;3.90;99.90
52621;DHT22;38515;53.160;6.990;2022-12-07T08:45:12;3.40;99.90
52621;DHT22;38515;53.160;6.990;2022-12-07T08:48:03;3.40;99.90
52621;DHT22;38515;53.160;6.990;2022-12-07T08:50:31;3.30;99.90
52621;DHT22;38515;53.160;6.990;2022-12-07T08:52:58;3.60;99.90
52621;DHT22;38515;53.160;6.990;2022-12-07T08:55:26;3.60;99.90
52621;DHT22;38515;53.160;6.990;2022-12-07T08:57:52;3.90;99.90
52621;DHT22;38515;53.160;6.990;2022-12-07T09:00:19;3.70;99.90
52621;DHT22;38515;53.160;6.990;2022-12-07T09:02:45;3.70;99.90
52621;DHT22;38515;53.160;6.990;2022-12-07T09:05:12;3.60;99.90
52621;DHT22;38515;53.160;6.990;2022-12-07T09:07:41;3.50;99.90
52621;DHT22;38515;53.160;6.990;2022-12-07T09:10:09;3.30;99.90
52621;DHT22;38515;53.160;6.990;2022-12-07T09:12:35;2.80;99.90
52621;DHT22;38515;53.160;6.990;2022-12-07T09:15:01;3.60;99.90
52621;DHT22;38515;53.160;6.990;2022-12-07T09:17:32;3.90;99.90
52621;DHT22;38515;53.160;6.990;2022-12-07T09:19:59;3.60;99.90
52621;DHT22;38515;53.160;6.990;2022-12-07T09:22:29;5.70;99.90
52621;DHT22;38515;53.160;6.990;2022-12-07T09:24:57;5.00;99.90
52621;DHT22;38515;53.160;6.990;2022-12-07T09:27:23;7.20;99.90
52621;DHT22;38515;53.160;6.990;2022-12-07T09:29:48;4.80;99.90
52621;DHT22;38515;53.160;6.990;2022-12-07T09:32:14;6.30;99.90
52621;DHT22;38515;53.160;6.990;2022-12-07T09:34:40;6.60;99.90
52621;DHT22;38515;53.160;6.990;2022-12-07T09:37:07;6.90;99.90
52621;DHT22;38515;53.160;6.990;2022-12-07T09:39:32;6.80;99.90
52621;DHT22;38515;53.160;6.990;2022-12-07T09:41:59;6.90;99.90
52621;DHT22;38515;53.160;6.990;2022-12-07T09:44:28;7.10;99.90
52621;DHT22;38515;53.160;6.990;2022-12-07T09:46:54;7.00;99.90
52621;DHT22;38515;53.160;6.990;2022-12-07T09:49:24;7.00;99.90
52621;DHT22;38515;53.160;6.990;2022-12-07T09:54:36;6.80;99.90
52621;DHT22;38515;53.160;6.990;2022-12-07T09:57:03;6.60;99.90
52621;DHT22;38515;53.160;6.990;2022-12-07T09:59:29;6.50;99.90
52621;DHT22;38515;53.160;6.990;2022-12-07T10:01:55;6.50;99.90
52621;DHT22;38515;53.160;6.990;2022-12-07T10:04:27;6.60;99.90
52621;DHT22;38515;53.160;6.990;2022-12-07T10:06:55;6.50;99.90
52621;DHT22;38515;53.160;6.990;2022-12-07T10:09:21;6.30;99.90
52621;DHT22;38515;53.160;6.990;2022-12-07T10:12:05;6.10;99.90
52621;DHT22;38515;53.160;6.990;2022-12-07T10:14:33;6.00;99.90
52621;DHT22;38515;53.160;6.990;2022-12-07T10:17:00;5.70;99.90
52621;DHT22;38515;53.160;6.990;2022-12-07T10:19:31;5.60;99.90
52621;DHT22;38515;53.160;6.990;2022-12-07T10:22:12;5.70;99.90
52621;DHT22;38515;53.160;6.990;2022-12-07T10:24:39;5.40;99.90
52621;DHT22;38515;53.160;6.990;2022-12-07T10:27:27;5.50;99.90
52621;DHT22;38515;53.160;6.990;2022-12-07T10:29:54;5.50;99.90
52621;DHT22;38515;53.160;6.990;2022-12-07T10:32:27;5.60;99.90
52621;DHT22;38515;53.160;6.990;2022-12-07T10:37:42;5.70;99.90
52621;DHT22;38515;53.160;6.990;2022-12-07T10:40:34;5.80;99.90
52621;DHT22;38515;53.160;6.990;2022-12-07T10:43:03;5.90;99.90
52621;DHT22;38515;53.160;6.990;2022-12-07T10:45:29;5.80;99.90
52621;DHT22;38515;53.160;6.990;2022-12-07T10:59:35;5.70;99.90
52621;DHT22;38515;53.160;6.990;2022-12-07T11:01:45;5.60;99.90
52621;DHT22;38515;53.160;6.990;2022-12-07T11:09:57;5.50;99.90
52621;DHT22;38515;53.160;6.990;2022-12-07T11:15:24;5.60;99.90
52621;DHT22;38515;53.160;6.990;2022-12-07T11:18:01;7.00;99.90
52621;DHT22;38515;53.160;6.990;2022-12-07T11:23:27;5.80;99.90
52621;DHT22;38515;53.160;6.990;2022-12-07T11:31:53;5.70;99.90
52621;DHT22;38515;53.160;6.990;2022-12-07T11:34:53;5.70;99.90
52621;DHT22;38515;53.160;6.990;2022-12-07T11:37:30;7.10;99.90
52621;DHT22;38515;53.160;6.990;2022-12-07T11:40:05;5.60;99.90
52621;DHT22;38515;53.160;6.990;2022-12-07T11:42:42;6.70;99.90
52621;DHT22;38515;53.160;6.990;2022-12-07T11:45:19;5.60;99.90
52621;DHT22;38515;53.160;6.990;2022-12-07T11:47:47;5.60;99.90
52621;DHT22;38515;53.160;6.990;2022-12-07T11:50:54;5.60;99.90
52621;DHT22;38515;53.160;6.990;2022-12-07T11:56:20;5.80;99.90
52621;DHT22;38515;53.160;6.990;2022-12-07T12:06:39;6.00;99.90
52621;DHT22;38515;53.160;6.990;2022-12-07T12:15:02;5.60;99.90
52621;DHT22;38515;53.160;6.990;2022-12-07T12:21:13;5.50;99.90
52621;DHT22;38515;53.160;6.990;2022-12-07T12:23:45;5.30;99.90
52621;DHT22;38515;53.160;6.990;2022-12-07T12:26:21;5.20;99.90
52621;DHT22;38515;53.160;6.990;2022-12-07T12:29:06;5.10;99.90
52621;DHT22;38515;53.160;6.990;2022-12-07T12:31:39;5.10;99.90
52621;DHT22;38515;53.160;6.990;2022-12-07T12:34:39;5.10;99.90
52621;DHT22;38515;53.160;6.990;2022-12-07T12:42:51;4.70;99.90
52621;DHT22;38515;53.160;6.990;2022-12-07T12:47:54;4.40;99.90
52621;DHT22;38515;53.160;6.990;2022-12-07T12:50:34;4.40;99.90
52621;DHT22;38515;53.160;6.990;2022-12-07T12:53:16;3.40;99.90
52621;DHT22;38515;53.160;6.990;2022-12-07T13:00:46;4.50;99.90
52621;DHT22;38515;53.160;6.990;2022-12-07T13:03:51;3.90;99.90
52621;DHT22;38515;53.160;6.990;2022-12-07T13:06:20;4.70;99.90
52621;DHT22;38515;53.160;6.990;2022-12-07T13:08:59;4.40;99.90
52621;DHT22;38515;53.160;6.990;2022-12-07T13:11:45;4.20;99.90
52621;DHT22;38515;53.160;6.990;2022-12-07T13:20:00;4.90;99.90
52621;DHT22;38515;53.160;6.990;2022-12-07T13:27:46;4.40;99.90
52621;DHT22;38515;53.160;6.990;2022-12-07T13:30:19;4.10;99.90
52621;DHT22;38515;53.160;6.990;2022-12-07T13:32:52;4.00;99.90
52621;DHT22;38515;53.160;6.990;2022-12-07T13:35:37;4.00;99.90
52621;DHT22;38515;53.160;6.990;2022-12-07T13:38:36;4.10;99.90
52621;DHT22;38515;53.160;6.990;2022-12-07T13:41:12;4.10;99.90
52621;DHT22;38515;53.160;6.990;2022-12-07T13:43:45;4.10;99.90
52621;DHT22;38515;53.160;6.990;2022-12-07T13:46:12;4.00;99.90
52621;DHT22;38515;53.160;6.990;2022-12-07T13:48:48;4.00;99.90
52621;DHT22;38515;53.160;6.990;2022-12-07T13:51:26;4.10;99.90
52621;DHT22;38515;53.160;6.990;2022-12-07T13:53:55;5.20;99.90
52621;DHT22;38515;53.160;6.990;2022-12-07T13:56:26;4.00;99.90
52621;DHT22;38515;53.160;6.990;2022-12-07T13:58:53;4.70;99.90
52621;DHT22;38515;53.160;6.990;2022-12-07T14:01:19;4.40;99.90
52621;DHT22;38515;53.160;6.990;2022-12-07T14:03:45;4.70;99.90
52621;DHT22;38515;53.160;6.990;2022-12-07T14:06:15;4.60;99.90
52621;DHT22;38515;53.160;6.990;2022-12-07T14:08:42;4.50;99.90
52621;DHT22;38515;53.160;6.990;2022-12-07T14:11:14;4.50;99.90
52621;DHT22;38515;53.160;6.990;2022-12-07T14:18:51;4.40;99.90
52621;DHT22;38515;53.160;6.990;2022-12-07T14:21:20;4.90;99.90
52621;DHT22;38515;53.160;6.990;2022-12-07T14:24:09;4.50;99.90
52621;DHT22;38515;53.160;6.990;2022-12-07T14:26:36;4.00;99.90
52621;DHT22;38515;53.160;6.990;2022-12-07T14:31:50;4.00;99.90
52621;DHT22;38515;53.160;6.990;2022-12-07T14:34:16;3.90;99.90
52621;DHT22;38515;53.160;6.990;2022-12-07T14:36:42;4.70;99.90
52621;DHT22;38515;53.160;6.990;2022-12-07T14:39:08;3.60;99.90
52621;DHT22;38515;53.160;6.990;2022-12-07T14:41:34;3.40;99.90
52621;DHT22;38515;53.160;6.990;2022-12-07T14:44:22;3.10;99.90
52621;DHT22;38515;53.160;6.990;2022-12-07T14:46:50;3.00;99.90
52621;DHT22;38515;53.160;6.990;2022-12-07T14:49:17;2.80;99.90
52621;DHT22;38515;53.160;6.990;2022-12-07T14:51:45;2.80;99.90
52621;DHT22;38515;53.160;6.990;2022-12-07T14:54:19;2.70;99.90
52621;DHT22;38515;53.160;6.990;2022-12-07T14:56:46;2.60;99.90
52621;DHT22;38515;53.160;6.990;2022-12-07T14:59:18;1.20;99.90
52621;DHT22;38515;53.160;6.990;2022-12-07T15:01:44;2.40;99.90
52621;DHT22;38515;53.160;6.990;2022-12-07T15:04:10;2.40;99.90
52621;DHT22;38515;53.160;6.990;2022-12-07T15:06:36;3.60;99.90
52621;DHT22;38515;53.160;6.990;2022-12-07T15:09:03;2.40;99.90
52621;DHT22;38515;53.160;6.990;2022-12-07T15:11:29;2.10;99.90
52621;DHT22;38515;53.160;6.990;2022-12-07T15:13:55;2.40;99.90
52621;DHT22;38515;53.160;6.990;2022-12-07T15:16:41;1.30;99.90
52621;DHT22;38515;53.160;6.990;2022-12-07T15:19:16;2.40;99.90
52621;DHT22;38515;53.160;6.990;2022-12-07T15:21:42;2.50;99.90
52621;DHT22;38515;53.160;6.990;2022-12-07T15:24:11;2.70;99.90
52621;DHT22;38515;53.160;6.990;2022-12-07T15:26:39;2.20;99.90
52621;DHT22;38515;53.160;6.990;2022-12-07T15:29:06;1.50;99.90
52621;DHT22;38515;53.160;6.990;2022-12-07T15:31:32;2.20;99.90
52621;DHT22;38515;53.160;6.990;2022-12-07T15:33:58;2.10;99.90
52621;DHT22;38515;53.160;6.990;2022-12-07T15:36:27;3.70;99.90
52621;DHT22;38515;53.160;6.990;2022-12-07T15:38:54;2.50;99.90
52621;DHT22;38515;53.160;6.990;2022-12-07T15:43:47;3.00;99.90
52621;DHT22;38515;53.160;6.990;2022-12-07T15:46:34;2.50;99.90
52621;DHT22;38515;53.160;6.990;2022-12-07T15:49:00;2.60;99.90
52621;DHT22;38515;53.160;6.990;2022-12-07T15:51:27;2.40;99.90
52621;DHT22;38515;53.160;6.990;2022-12-07T15:53:53;3.60;99.90
52621;DHT22;38515;53.160;6.990;2022-12-07T15:56:20;2.70;99.90
52621;DHT22;38515;53.160;6.990;2022-12-07T15:58:46;2.80;99.90
52621;DHT22;38515;53.160;6.990;2022-12-07T16:01:13;2.90;99.90
52621;DHT22;38515;53.160;6.990;2022-12-07T16:03:39;3.00;99.90
52621;DHT22;38515;53.160;6.990;2022-12-07T16:06:05;3.00;99.90
52621;DHT22;38515;53.160;6.990;2022-12-07T16:08:32;2.40;99.90
52621;DHT22;38515;53.160;6.990;2022-12-07T16:10:58;2.90;99.90
52621;DHT22;38515;53.160;6.990;2022-12-07T16:13:24;2.20;99.90
52621;DHT22;38515;53.160;6.990;2022-12-07T16:15:50;2.90;99.90
52621;DHT22;38515;53.160;6.990;2022-12-07T16:18:16;2.90;99.90
52621;DHT22;38515;53.160;6.990;2022-12-07T16:20:41;2.90;99.90
52621;DHT22;38515;53.160;6.990;2022-12-07T16:23:08;2.90;99.90
52621;DHT22;38515;53.160;6.990;2022-12-07T16:25:34;2.60;99.90
52621;DHT22;38515;53.160;6.990;2022-12-07T16:27:59;2.20;99.90
52621;DHT22;38515;53.160;6.990;2022-12-07T16:30:25;3.40;99.90
52621;DHT22;38515;53.160;6.990;2022-12-07T16:35:18;2.80;99.90
52621;DHT22;38515;53.160;6.990;2022-12-07T16:37:43;2.70;99.90
52621;DHT22;38515;53.160;6.990;2022-12-07T16:40:10;4.80;99.90
52621;DHT22;38515;53.160;6.990;2022-12-07T16:42:36;1.90;99.90
52621;DHT22;38515;53.160;6.990;2022-12-07T16:45:02;2.80;99.90
52621;DHT22;38515;53.160;6.990;2022-12-07T16:47:28;2.80;99.90
52621;DHT22;38515;53.160;6.990;2022-12-07T16:49:54;2.90;99.90
52621;DHT22;38515;53.160;6.990;2022-12-07T16:52:21;2.90;99.90
52621;DHT22;38515;53.160;6.990;2022-12-07T16:54:48;3.20;99.90
52621;DHT22;38515;53.160;6.990;2022-12-07T16:57:15;2.90;99.90
52621;DHT22;38515;53.160;6.990;2022-12-07T16:59:41;3.00;99.90
52621;DHT22;38515;53.160;6.990;2022-12-07T17:02:11;3.00;99.90
52621;DHT22;38515;53.160;6.990;2022-12-07T17:04:37;2.30;99.90
52621;DHT22;38515;53.160;6.990;2022-12-07T17:07:06;3.00;99.90
52621;DHT22;38515;53.160;6.990;2022-12-07T17:09:35;3.00;99.90
52621;DHT22;38515;53.160;6.990;2022-12-07T17:12:01;2.90;99.90
52621;DHT22;38515;53.160;6.990;2022-12-07T17:14:27;2.80;99.90
52621;DHT22;38515;53.160;6.990;2022-12-07T17:17:11;2.80;99.90
52621;DHT22;38515;53.160;6.990;2022-12-07T17:19:37;2.70;99.90
52621;DHT22;38515;53.160;6.990;2022-12-07T17:22:03;2.60;99.90
52621;DHT22;38515;53.160;6.990;2022-12-07T17:24:29;3.20;99.90
52621;DHT22;38515;53.160;6.990;2022-12-07T17:26:55;2.50;99.90
52621;DHT22;38515;53.160;6.990;2022-12-07T17:29:21;2.40;99.90
52621;DHT22;38515;53.160;6.990;2022-12-07T17:31:47;2.40;99.90
52621;DHT22;38515;53.160;6.990;2022-12-07T17:34:15;4.10;99.90
52621;DHT22;38515;53.160;6.990;2022-12-07T17:36:41;2.30;99.90
52621;DHT22;38515;53.160;6.990;2022-12-07T17:39:09;1.40;99.90
52621;DHT22;38515;53.160;6.990;2022-12-07T17:41:36;2.10;99.90
52621;DHT22;38515;53.160;6.990;2022-12-07T17:44:21;3.40;99.90
52621;DHT22;38515;53.160;6.990;2022-12-07T17:46:50;2.40;99.90
52621;DHT22;38515;53.160;6.990;2022-12-07T17:49:20;2.30;99.90
52621;DHT22;38515;53.160;6.990;2022-12-07T17:51:46;2.30;99.90
52621;DHT22;38515;53.160;6.990;2022-12-07T17:54:30;2.30;99.90
52621;DHT22;38515;53.160;6.990;2022-12-07T17:56:56;2.30;99.90
52621;DHT22;38515;53.160;6.990;2022-12-07T17:59:23;2.20;99.90
52621;DHT22;38515;53.160;6.990;2022-12-07T18:01:49;2.40;99.90
52621;DHT22;38515;53.160;6.990;2022-12-07T18:04:15;2.20;99.90